createdAt,value
2022-07-28T00:00:15.176Z,6.40
2022-07-28T00:01:16.380Z,6.70
2022-07-28T00:02:16.750Z,6.50
2022-07-28T00:03:17.506Z,6.40
2022-07-28T00:04:18.187Z,6.60
2022-07-28T00:05:18.719Z,6.40
2022-07-28T00:06:19.293Z,6.60
2022-07-28T00:07:19.840Z,6.30
2022-07-28T00:08:20.370Z,6.50
2022-07-28T00:09:21.038Z,6.80
2022-07-28T00:10:21.574Z,6.80
2022-07-28T00:11:22.110Z,6.60
2022-07-28T00:12:22.649Z,6.60
2022-07-28T00:13:23.197Z,6.60
2022-07-28T00:14:23.791Z,6.50
2022-07-28T00:15:24.344Z,6.70
2022-07-28T00:16:24.956Z,6.80
2022-07-28T00:17:25.547Z,6.80
2022-07-28T00:18:26.093Z,6.50
2022-07-28T00:19:26.657Z,6.60
2022-07-28T00:20:27.194Z,6.80
2022-07-28T00:21:27.735Z,6.60
2022-07-28T00:22:28.271Z,6.20
2022-07-28T00:23:39.048Z,6.30
2022-07-28T00:24:29.776Z,6.70
2022-07-28T00:25:30.316Z,6.90
2022-07-28T00:26:30.852Z,6.60
2022-07-28T00:27:31.391Z,6.10
2022-07-28T00:28:31.922Z,6.50
2022-07-28T00:29:42.592Z,6.50
2022-07-28T00:30:33.441Z,6.60
2022-07-28T00:31:34.133Z,6.50
2022-07-28T00:32:34.740Z,6.30
2022-07-28T00:33:35.306Z,6.40
2022-07-28T00:34:36.062Z,6.70
2022-07-28T00:35:36.577Z,6.50
2022-07-28T00:36:37.157Z,6.60
2022-07-28T00:37:39.829Z,6.40
2022-07-28T00:38:40.863Z,6.10
2022-07-28T00:39:39.607Z,6.50
2022-07-28T00:40:40.140Z,6.30
2022-07-28T00:41:40.674Z,6.20
2022-07-28T00:42:41.609Z,6.50
2022-07-28T00:43:42.149Z,6.70
2022-07-28T00:44:42.761Z,6.10
2022-07-28T00:45:43.292Z,6.80
2022-07-28T00:46:43.900Z,6.10
2022-07-28T00:47:44.490Z,6.10
2022-07-28T00:48:45.121Z,6.40
2022-07-28T00:49:45.744Z,6.30
2022-07-28T00:50:46.277Z,6.20
2022-07-28T00:51:46.806Z,6.20
2022-07-28T00:52:47.354Z,6.20
2022-07-28T00:53:47.891Z,6.10
2022-07-28T00:54:48.501Z,6.10
2022-07-28T00:56:05.995Z,6.40
2022-07-28T00:56:49.933Z,6.10
2022-07-28T00:57:50.479Z,6.40
2022-07-28T00:58:51.015Z,6.00
2022-07-28T00:59:51.672Z,6.40
2022-07-28T01:00:52.215Z,6.10
2022-07-28T01:01:53.337Z,6.50
2022-07-28T01:02:53.951Z,6.50
2022-07-28T01:03:54.602Z,6.00
2022-07-28T01:04:55.232Z,5.90
2022-07-28T01:05:55.764Z,6.10
2022-07-28T01:06:56.302Z,6.30
2022-07-28T01:07:56.844Z,6.10
2022-07-28T01:08:57.381Z,6.10
2022-07-28T01:09:57.951Z,6.40
2022-07-28T01:10:58.492Z,5.90
2022-07-28T01:11:59.022Z,6.20
2022-07-28T01:12:59.555Z,6.20
2022-07-28T01:14:00.102Z,6.00
2022-07-28T01:15:00.707Z,6.20
2022-07-28T01:16:01.368Z,6.10
2022-07-28T01:17:01.916Z,6.20
2022-07-28T01:18:02.442Z,6.40
2022-07-28T01:19:02.987Z,6.10
2022-07-28T01:20:03.555Z,5.90
2022-07-28T01:21:04.094Z,5.90
2022-07-28T01:22:04.628Z,6.30
2022-07-28T01:23:05.160Z,6.00
2022-07-28T01:24:05.705Z,6.30
2022-07-28T01:25:06.269Z,5.90
2022-07-28T01:26:06.806Z,6.50
2022-07-28T01:27:07.348Z,6.20
2022-07-28T01:28:07.888Z,6.30
2022-07-28T01:29:08.425Z,6.00
2022-07-28T01:30:09.194Z,6.10
2022-07-28T01:31:09.819Z,6.30
2022-07-28T01:32:10.386Z,6.40
2022-07-28T01:33:10.915Z,6.00
2022-07-28T01:34:11.781Z,6.00
2022-07-28T01:35:12.126Z,5.80
2022-07-28T01:36:12.680Z,6.20
2022-07-28T01:37:13.221Z,5.90
2022-07-28T01:38:13.764Z,6.10
2022-07-28T01:39:14.303Z,5.80
2022-07-28T01:40:14.943Z,5.80
2022-07-28T01:41:15.480Z,5.60
2022-07-28T01:42:16.164Z,5.70
2022-07-28T01:43:16.703Z,5.90
2022-07-28T01:44:17.602Z,5.90
2022-07-28T01:45:17.878Z,5.90
2022-07-28T01:46:18.464Z,6.00
2022-07-28T01:47:19.037Z,6.00
2022-07-28T01:48:19.583Z,5.60
2022-07-28T01:49:20.229Z,5.80
2022-07-28T01:50:20.845Z,6.10
2022-07-28T01:51:21.388Z,5.90
2022-07-28T01:52:21.930Z,6.30
2022-07-28T01:53:22.467Z,5.80
2022-07-28T01:54:23.003Z,5.90
2022-07-28T01:55:23.567Z,7.20
2022-07-28T01:56:24.099Z,5.90
2022-07-28T01:57:24.631Z,5.40
2022-07-28T01:58:25.170Z,5.90
2022-07-28T01:59:25.715Z,5.90
2022-07-28T02:00:27.763Z,5.90
2022-07-28T02:01:27.053Z,6.00
2022-07-28T02:02:27.626Z,5.90
2022-07-28T02:03:28.159Z,6.00
2022-07-28T02:04:28.689Z,5.80
2022-07-28T02:05:29.417Z,6.00
2022-07-28T02:06:30.004Z,5.90
2022-07-28T02:07:30.857Z,5.80
2022-07-28T02:08:31.398Z,5.90
2022-07-28T02:09:31.939Z,5.80
2022-07-28T02:10:32.499Z,5.70
2022-07-28T02:11:33.033Z,5.90
2022-07-28T02:12:33.567Z,5.60
2022-07-28T02:13:34.103Z,5.90
2022-07-28T02:14:34.640Z,5.80
2022-07-28T02:15:35.427Z,5.90
2022-07-28T02:16:36.003Z,6.10
2022-07-28T02:17:36.542Z,6.00
2022-07-28T02:18:37.075Z,5.80
2022-07-28T02:19:37.616Z,5.90
2022-07-28T02:20:38.176Z,5.90
2022-07-28T02:21:38.706Z,5.80
2022-07-28T02:22:39.234Z,6.00
2022-07-28T02:23:39.764Z,5.60
2022-07-28T02:24:40.311Z,5.40
2022-07-28T02:25:40.875Z,6.20
2022-07-28T02:26:41.400Z,6.30
2022-07-28T02:27:41.931Z,6.20
2022-07-28T02:28:42.469Z,5.80
2022-07-28T02:29:50.789Z,5.80
2022-07-28T02:30:44.052Z,6.10
2022-07-28T02:31:44.610Z,5.90
2022-07-28T02:32:45.138Z,6.00
2022-07-28T02:33:59.536Z,6.30
2022-07-28T02:34:46.571Z,6.00
2022-07-28T02:35:48.955Z,5.80
2022-07-28T02:36:48.477Z,5.60
2022-07-28T02:37:49.078Z,5.80
2022-07-28T02:38:49.623Z,6.00
2022-07-28T02:39:57.471Z,5.80
2022-07-28T02:40:51.098Z,6.10
2022-07-28T02:41:51.636Z,6.10
2022-07-28T02:42:52.178Z,6.00
2022-07-28T02:43:52.712Z,6.00
2022-07-28T02:44:53.244Z,5.80
2022-07-28T02:45:53.878Z,6.10
2022-07-28T02:46:54.445Z,6.40
2022-07-28T02:47:54.987Z,6.00
2022-07-28T02:48:55.592Z,5.90
2022-07-28T02:49:56.156Z,6.10
2022-07-28T02:50:56.703Z,6.00
2022-07-28T02:51:57.240Z,5.80
2022-07-28T02:52:57.770Z,5.60
2022-07-28T02:53:58.302Z,6.00
2022-07-28T02:54:58.831Z,5.80
2022-07-28T02:55:59.397Z,5.70
2022-07-28T02:56:59.945Z,5.80
2022-07-28T02:58:00.482Z,5.60
2022-07-28T02:59:01.149Z,6.00
2022-07-28T03:00:01.679Z,5.90
2022-07-28T03:01:02.445Z,5.70
2022-07-28T03:02:03.015Z,5.70
2022-07-28T03:03:03.547Z,5.80
2022-07-28T03:04:04.090Z,5.60
2022-07-28T03:05:07.616Z,5.90
2022-07-28T03:06:05.707Z,5.90
2022-07-28T03:07:06.242Z,5.80
2022-07-28T03:08:07.101Z,5.50
2022-07-28T03:09:07.671Z,6.30
2022-07-28T03:10:08.582Z,6.10
2022-07-28T03:11:09.137Z,5.90
2022-07-28T03:12:09.674Z,5.80
2022-07-28T03:13:10.218Z,5.90
2022-07-28T03:14:11.061Z,5.90
2022-07-28T03:15:11.335Z,6.20
2022-07-28T03:16:12.334Z,5.80
2022-07-28T03:17:12.941Z,5.80
2022-07-28T03:18:13.520Z,5.80
2022-07-28T03:19:14.045Z,5.90
2022-07-28T03:20:14.583Z,5.90
2022-07-28T03:21:15.157Z,5.70
2022-07-28T03:22:15.688Z,5.60
2022-07-28T03:23:16.225Z,5.90
2022-07-28T03:24:17.060Z,5.80
2022-07-28T03:25:17.293Z,5.90
2022-07-28T03:26:17.878Z,5.90
2022-07-28T03:27:18.711Z,5.80
2022-07-28T03:28:19.237Z,5.90
2022-07-28T03:29:19.778Z,5.90
2022-07-28T03:30:20.318Z,5.70
2022-07-28T03:31:20.978Z,6.00
2022-07-28T03:32:21.548Z,5.90
2022-07-28T03:33:22.092Z,5.60
2022-07-28T03:34:22.630Z,5.80
2022-07-28T03:35:23.170Z,6.10
2022-07-28T03:36:23.845Z,5.70
2022-07-28T03:37:24.380Z,5.60
2022-07-28T03:38:24.910Z,5.90
2022-07-28T03:39:25.445Z,6.00
2022-07-28T03:40:26.342Z,5.80
2022-07-28T03:41:26.903Z,5.80
2022-07-28T03:42:27.434Z,5.90
2022-07-28T03:43:27.963Z,5.80
2022-07-28T03:44:28.960Z,5.60
2022-07-28T03:45:29.225Z,5.90
2022-07-28T03:46:29.894Z,5.80
2022-07-28T03:47:30.447Z,5.80
2022-07-28T03:48:31.002Z,5.80
2022-07-28T03:49:31.538Z,6.00
2022-07-28T03:50:32.074Z,5.50
2022-07-28T03:51:43.296Z,5.80
2022-07-28T03:52:33.224Z,6.20
2022-07-28T03:53:33.769Z,5.80
2022-07-28T03:54:34.325Z,5.40
2022-07-28T03:55:34.859Z,5.60
2022-07-28T03:56:35.422Z,5.80
2022-07-28T03:57:35.953Z,5.80
2022-07-28T03:58:36.497Z,6.00
2022-07-28T03:59:37.031Z,5.60
2022-07-28T04:00:37.560Z,5.80
2022-07-28T04:01:38.400Z,6.00
2022-07-28T04:02:39.078Z,5.60
2022-07-28T04:03:43.764Z,6.00
2022-07-28T04:04:40.463Z,5.40
2022-07-28T04:05:41.001Z,5.90
2022-07-28T04:06:41.571Z,5.60
2022-07-28T04:07:42.121Z,5.70
2022-07-28T04:08:42.689Z,5.70
2022-07-28T04:09:43.240Z,5.70
2022-07-28T04:10:43.778Z,5.80
2022-07-28T04:11:44.331Z,5.60
2022-07-28T04:12:44.868Z,5.70
2022-07-28T04:13:45.397Z,5.60
2022-07-28T04:14:45.932Z,5.80
2022-07-28T04:15:46.467Z,5.70
2022-07-28T04:16:47.160Z,5.80
2022-07-28T04:17:47.780Z,6.10
2022-07-28T04:18:48.321Z,5.90
2022-07-28T04:19:48.861Z,5.50
2022-07-28T04:20:49.833Z,5.90
2022-07-28T04:21:50.387Z,5.80
2022-07-28T04:22:50.918Z,5.90
2022-07-28T04:23:51.460Z,5.70
2022-07-28T04:24:52.101Z,5.70
2022-07-28T04:25:52.639Z,5.60
2022-07-28T04:26:53.202Z,5.60
2022-07-28T04:27:53.774Z,5.80
2022-07-28T04:28:54.314Z,5.80
2022-07-28T04:29:54.846Z,6.10
2022-07-28T04:30:55.475Z,5.70
2022-07-28T04:31:56.394Z,5.90
2022-07-28T04:32:56.646Z,5.90
2022-07-28T04:33:57.192Z,6.00
2022-07-28T04:34:57.731Z,5.90
2022-07-28T04:35:58.279Z,5.70
2022-07-28T04:36:58.890Z,5.80
2022-07-28T04:37:59.434Z,5.90
2022-07-28T04:38:59.964Z,5.80
2022-07-28T04:40:00.508Z,5.80
2022-07-28T04:41:01.049Z,5.90
2022-07-28T04:42:01.631Z,6.10
2022-07-28T04:43:02.163Z,5.90
2022-07-28T04:44:02.693Z,5.80
2022-07-28T04:45:03.233Z,5.90
2022-07-28T04:46:03.816Z,5.90
2022-07-28T04:47:06.274Z,5.70
2022-07-28T04:48:05.039Z,6.10
2022-07-28T04:49:05.648Z,5.60
2022-07-28T04:50:06.279Z,6.00
2022-07-28T04:51:06.775Z,6.10
2022-07-28T04:52:07.775Z,5.70
2022-07-28T04:53:08.257Z,6.10
2022-07-28T04:54:09.241Z,5.90
2022-07-28T04:55:10.226Z,6.30
2022-07-28T04:56:11.208Z,5.90
2022-07-28T04:57:12.851Z,5.80
2022-07-28T04:58:12.961Z,5.60
2022-07-28T04:59:13.942Z,5.80
2022-07-28T05:00:14.678Z,6.30
2022-07-28T05:01:15.671Z,5.90
2022-07-28T05:02:16.398Z,5.80
2022-07-28T05:03:16.835Z,5.50
2022-07-28T05:04:18.472Z,5.90
2022-07-28T05:05:18.920Z,6.30
2022-07-28T05:06:19.532Z,5.70
2022-07-28T05:07:20.537Z,6.10
2022-07-28T05:08:21.019Z,5.40
2022-07-28T05:09:21.774Z,6.10
2022-07-28T05:10:22.763Z,5.90
2022-07-28T05:11:23.740Z,5.90
2022-07-28T05:12:24.748Z,6.00
2022-07-28T05:13:28.926Z,5.80
2022-07-28T05:14:26.077Z,6.00
2022-07-28T05:15:27.062Z,6.00
2022-07-28T05:16:28.080Z,5.50
2022-07-28T05:17:28.637Z,5.90
2022-07-28T05:18:29.121Z,5.80
2022-07-28T05:19:30.098Z,5.60
2022-07-28T05:20:31.073Z,5.60
2022-07-28T05:21:32.064Z,5.80
2022-07-28T05:22:33.069Z,5.90
2022-07-28T05:23:33.552Z,5.70
2022-07-28T05:24:34.530Z,6.10
2022-07-28T05:25:35.519Z,5.90
2022-07-28T05:26:36.503Z,5.90
2022-07-28T05:27:37.516Z,5.90
2022-07-28T05:28:37.998Z,5.80
2022-07-28T05:29:47.046Z,6.10
2022-07-28T05:30:39.827Z,5.90
2022-07-28T05:31:40.855Z,6.30
2022-07-28T05:32:41.535Z,5.90
2022-07-28T05:33:42.019Z,5.90
2022-07-28T05:34:42.997Z,6.10
2022-07-28T05:35:43.985Z,5.90
2022-07-28T05:36:44.961Z,6.00
2022-07-28T05:37:46.005Z,6.10
2022-07-28T05:38:46.489Z,6.10
2022-07-28T05:39:47.483Z,6.00
2022-07-28T05:40:47.966Z,6.00
2022-07-28T05:41:48.946Z,5.80
2022-07-28T05:42:49.959Z,5.60
2022-07-28T05:43:50.435Z,6.10
2022-07-28T05:44:51.423Z,5.90
2022-07-28T05:45:52.544Z,6.00
2022-07-28T05:46:53.090Z,6.00
2022-07-28T05:47:54.133Z,6.00
2022-07-28T05:48:54.674Z,5.90
2022-07-28T05:49:55.177Z,6.30
2022-07-28T05:50:56.165Z,5.80
2022-07-28T05:51:57.152Z,5.90
2022-07-28T05:52:58.169Z,5.70
2022-07-28T05:53:58.653Z,6.40
2022-07-28T05:54:59.140Z,6.10
2022-07-28T05:56:01.887Z,5.80
2022-07-28T05:57:01.033Z,6.00
2022-07-28T05:58:02.097Z,5.90
2022-07-28T05:59:02.589Z,6.10
2022-07-28T06:00:03.073Z,5.70
2022-07-28T06:01:04.123Z,5.90
2022-07-28T06:02:04.732Z,5.60
2022-07-28T06:03:05.465Z,5.90
2022-07-28T06:04:25.150Z,6.00
2022-07-28T06:05:06.837Z,5.90
2022-07-28T06:06:15.155Z,6.10
2022-07-28T06:07:08.735Z,5.70
2022-07-28T06:08:09.288Z,5.90
2022-07-28T06:09:09.830Z,5.80
2022-07-28T06:10:10.367Z,5.90
2022-07-28T06:11:10.898Z,6.40
2022-07-28T06:12:11.434Z,6.00
2022-07-28T06:13:12.006Z,6.00
2022-07-28T06:14:12.914Z,6.00
2022-07-28T06:15:13.173Z,5.90
2022-07-28T06:16:13.799Z,5.80
2022-07-28T06:17:14.405Z,6.20
2022-07-28T06:18:15.007Z,5.90
2022-07-28T06:19:15.546Z,5.90
2022-07-28T06:20:16.081Z,6.10
2022-07-28T06:21:16.613Z,5.90
2022-07-28T06:22:17.207Z,6.00
2022-07-28T06:23:17.754Z,5.90
2022-07-28T06:24:18.489Z,5.70
2022-07-28T06:25:19.027Z,5.80
2022-07-28T06:26:19.579Z,6.00
2022-07-28T06:27:20.119Z,5.90
2022-07-28T06:28:20.684Z,6.10
2022-07-28T06:29:21.215Z,6.00
2022-07-28T06:30:21.751Z,6.20
2022-07-28T06:31:22.485Z,6.00
2022-07-28T06:32:23.078Z,6.00
2022-07-28T06:33:23.701Z,6.20
2022-07-28T06:34:24.230Z,5.90
2022-07-28T06:35:24.773Z,5.70
2022-07-28T06:36:25.311Z,6.30
2022-07-28T06:37:25.853Z,6.90
2022-07-28T06:38:26.460Z,6.10
2022-07-28T06:39:26.997Z,6.40
2022-07-28T06:40:27.532Z,7.20
2022-07-28T06:41:28.071Z,6.30
2022-07-28T06:42:28.610Z,6.20
2022-07-28T06:43:29.168Z,6.20
2022-07-28T06:44:54.892Z,6.30
2022-07-28T06:45:30.604Z,6.00
2022-07-28T06:46:31.256Z,5.90
2022-07-28T06:47:31.845Z,5.90
2022-07-28T06:48:32.536Z,6.10
2022-07-28T06:49:33.337Z,6.10
2022-07-28T06:50:33.925Z,6.10
2022-07-28T06:51:34.458Z,6.60
2022-07-28T06:52:35.380Z,6.20
2022-07-28T06:53:35.938Z,6.00
2022-07-28T06:54:36.478Z,7.60
2022-07-28T06:55:37.397Z,6.20
2022-07-28T06:56:37.942Z,6.50
2022-07-28T06:57:38.484Z,10.10
2022-07-28T06:58:39.057Z,7.00
2022-07-28T06:59:39.594Z,6.40
2022-07-28T07:00:40.183Z,6.20
2022-07-28T07:01:40.767Z,8.40
2022-07-28T07:02:41.299Z,7.30
2022-07-28T07:03:41.980Z,6.50
2022-07-28T07:04:42.581Z,7.30
2022-07-28T07:05:43.187Z,6.50
2022-07-28T07:06:43.748Z,6.50
2022-07-28T07:07:44.290Z,7.10
2022-07-28T07:08:44.920Z,6.60
2022-07-28T07:09:45.473Z,6.50
2022-07-28T07:10:46.005Z,6.30
2022-07-28T07:11:46.793Z,6.90
2022-07-28T07:12:47.342Z,6.60
2022-07-28T07:13:47.902Z,6.50
2022-07-28T07:14:48.442Z,6.40
2022-07-28T07:15:49.070Z,6.30
2022-07-28T07:16:49.697Z,6.40
2022-07-28T07:17:50.289Z,6.20
2022-07-28T07:18:50.853Z,6.80
2022-07-28T07:19:51.384Z,6.50
2022-07-28T07:20:51.975Z,6.90
2022-07-28T07:21:52.645Z,6.30
2022-07-28T07:22:53.182Z,6.60
2022-07-28T07:23:53.796Z,6.90
2022-07-28T07:24:57.107Z,6.60
2022-07-28T07:25:54.925Z,6.90
2022-07-28T07:26:55.503Z,6.20
2022-07-28T07:27:56.055Z,6.40
2022-07-28T07:28:56.647Z,6.30
2022-07-28T07:29:57.181Z,6.50
2022-07-28T07:30:57.733Z,7.40
2022-07-28T07:31:58.398Z,6.40
2022-07-28T07:32:59.026Z,9.60
2022-07-28T07:33:59.675Z,6.60
2022-07-28T07:35:00.233Z,7.20
2022-07-28T07:36:00.779Z,6.40
2022-07-28T07:37:01.336Z,7.60
2022-07-28T07:38:01.890Z,6.30
2022-07-28T07:39:02.524Z,6.40
2022-07-28T07:40:03.069Z,6.70
2022-07-28T07:41:03.634Z,6.60
2022-07-28T07:42:04.195Z,6.80
2022-07-28T07:43:04.749Z,6.70
2022-07-28T07:44:05.328Z,8.20
2022-07-28T07:45:05.864Z,7.20
2022-07-28T07:46:06.540Z,6.80
2022-07-28T07:47:07.172Z,8.60
2022-07-28T07:48:07.638Z,6.50
2022-07-28T07:49:08.332Z,8.50
2022-07-28T07:50:08.960Z,7.10
2022-07-28T07:51:15.351Z,7.00
2022-07-28T07:52:10.409Z,6.70
2022-07-28T07:53:10.925Z,7.60
2022-07-28T07:54:11.907Z,7.40
2022-07-28T07:55:12.193Z,6.90
2022-07-28T07:56:12.695Z,8.20
2022-07-28T07:57:13.777Z,7.10
2022-07-28T07:58:14.271Z,9.10
2022-07-28T07:59:14.801Z,6.20
2022-07-28T08:00:28.547Z,6.60
2022-07-28T08:01:16.224Z,7.00
2022-07-28T08:02:16.797Z,6.80
2022-07-28T08:03:17.286Z,7.20
2022-07-28T08:04:18.758Z,6.70
2022-07-28T08:05:19.042Z,6.40
2022-07-28T08:06:26.286Z,6.70
2022-07-28T08:07:22.218Z,6.50
2022-07-28T08:08:21.341Z,6.80
2022-07-28T08:09:21.852Z,8.60
2022-07-28T08:10:22.492Z,7.40
2022-07-28T08:11:23.057Z,6.40
2022-07-28T08:12:25.065Z,6.50
2022-07-28T08:13:24.090Z,7.10
2022-07-28T08:14:24.597Z,6.50
2022-07-28T08:15:25.128Z,6.30
2022-07-28T08:16:25.682Z,6.40
2022-07-28T08:17:26.449Z,7.10
2022-07-28T08:18:27.000Z,6.90
2022-07-28T08:19:27.541Z,6.80
2022-07-28T08:20:28.034Z,6.50
2022-07-28T08:21:28.545Z,7.30
2022-07-28T08:22:29.060Z,7.90
2022-07-28T08:23:29.551Z,7.70
2022-07-28T08:24:33.385Z,6.80
2022-07-28T08:25:31.172Z,7.20
2022-07-28T08:26:32.171Z,6.50
2022-07-28T08:27:32.699Z,6.90
2022-07-28T08:28:33.202Z,6.60
2022-07-28T08:29:33.728Z,6.80
2022-07-28T08:30:34.226Z,7.00
2022-07-28T08:31:35.439Z,7.10
2022-07-28T08:32:35.674Z,7.80
2022-07-28T08:33:36.153Z,7.60
2022-07-28T08:34:37.226Z,6.80
2022-07-28T08:35:37.841Z,7.10
2022-07-28T08:36:38.361Z,7.20
2022-07-28T08:37:38.848Z,6.40
2022-07-28T08:38:39.380Z,7.00
2022-07-28T08:39:39.950Z,6.20
2022-07-28T08:40:40.468Z,7.20
2022-07-28T08:41:40.958Z,6.40
2022-07-28T08:42:41.954Z,6.80
2022-07-28T08:43:42.637Z,6.70
2022-07-28T08:44:43.181Z,6.40
2022-07-28T08:45:43.663Z,6.90
2022-07-28T08:46:44.765Z,7.50
2022-07-28T08:48:07.199Z,6.60
2022-07-28T08:48:46.253Z,6.80
2022-07-28T08:49:46.835Z,6.60
2022-07-28T08:50:47.316Z,6.70
2022-07-28T08:51:48.293Z,6.80
2022-07-28T08:52:49.277Z,6.50
2022-07-28T08:53:50.294Z,6.70
2022-07-28T08:54:50.822Z,7.00
2022-07-28T08:55:51.335Z,6.90
2022-07-28T08:56:51.844Z,7.00
2022-07-28T08:57:52.350Z,6.80
2022-07-28T08:58:52.861Z,6.60
2022-07-28T08:59:53.411Z,7.10
2022-07-28T09:00:53.913Z,6.70
2022-07-28T09:01:57.690Z,6.70
2022-07-28T09:02:55.015Z,7.00
2022-07-28T09:03:55.555Z,6.70
2022-07-28T09:04:56.189Z,6.80
2022-07-28T09:05:56.681Z,6.40
2022-07-28T09:06:57.210Z,7.30
2022-07-28T09:07:57.733Z,6.30
2022-07-28T09:08:58.227Z,6.60
2022-07-28T09:10:02.718Z,6.40
2022-07-28T09:10:59.534Z,6.60
2022-07-28T09:12:00.077Z,6.70
2022-07-28T09:13:00.600Z,8.20
2022-07-28T09:14:01.133Z,6.60
2022-07-28T09:15:01.680Z,6.80
2022-07-28T09:16:02.295Z,6.90
2022-07-28T09:17:02.849Z,7.80
2022-07-28T09:18:03.508Z,6.40
2022-07-28T09:19:04.021Z,6.70
2022-07-28T09:20:10.420Z,6.80
2022-07-28T09:21:05.437Z,6.60
2022-07-28T09:22:05.926Z,7.80
2022-07-28T09:23:42.901Z,8.30
2022-07-28T09:24:07.760Z,6.60
2022-07-28T09:25:08.778Z,6.30
2022-07-28T09:26:11.306Z,9.50
2022-07-28T09:27:09.818Z,7.20
2022-07-28T09:28:10.326Z,8.20
2022-07-28T09:29:10.861Z,6.70
2022-07-28T09:30:11.443Z,9.60
2022-07-28T09:31:12.038Z,7.90
2022-07-28T09:32:12.642Z,8.10
2022-07-28T09:33:43.141Z,9.80
2022-07-28T09:34:14.429Z,7.70
2022-07-28T09:35:14.940Z,7.00
2022-07-28T09:36:15.492Z,6.60
2022-07-28T09:37:16.032Z,6.90
2022-07-28T09:38:16.854Z,10.50
2022-07-28T09:39:17.415Z,7.40
2022-07-28T09:40:18.155Z,8.80
2022-07-28T09:41:19.063Z,10.90
2022-07-28T09:42:19.727Z,7.00
2022-07-28T09:43:20.295Z,7.90
2022-07-28T09:44:20.903Z,7.90
2022-07-28T09:45:23.244Z,7.50
2022-07-28T09:46:22.227Z,7.50
2022-07-28T09:47:23.118Z,6.70
2022-07-28T09:48:24.132Z,8.50
2022-07-28T09:49:28.489Z,8.50
2022-07-28T09:50:24.967Z,9.30
2022-07-28T09:51:25.526Z,8.20
2022-07-28T09:52:26.068Z,8.70
2022-07-28T09:53:28.192Z,7.50
2022-07-28T09:54:27.135Z,8.00
2022-07-28T09:55:27.702Z,6.90
2022-07-28T09:56:28.237Z,7.50
2022-07-28T09:57:28.765Z,8.20
2022-07-28T09:58:29.413Z,8.30
2022-07-28T09:59:29.931Z,8.80
2022-07-28T10:00:30.538Z,7.40
2022-07-28T10:01:36.832Z,7.10
2022-07-28T10:02:32.160Z,7.60
2022-07-28T10:03:32.722Z,7.20
2022-07-28T10:04:33.258Z,7.50
2022-07-28T10:05:33.999Z,7.20
2022-07-28T10:06:34.544Z,7.30
2022-07-28T10:07:35.102Z,7.30
2022-07-28T10:08:35.627Z,8.00
2022-07-28T10:09:36.158Z,7.60
2022-07-28T10:10:36.731Z,7.60
2022-07-28T10:11:41.509Z,7.80
2022-07-28T10:12:37.795Z,7.80
2022-07-28T10:13:38.333Z,7.70
2022-07-28T10:14:38.867Z,6.80
2022-07-28T10:15:43.293Z,6.80
2022-07-28T10:16:40.363Z,6.60
2022-07-28T10:17:40.926Z,6.80
2022-07-28T10:19:42.383Z,7.00
2022-07-28T10:20:42.943Z,8.40
2022-07-28T10:21:43.479Z,7.30
2022-07-28T10:22:44.029Z,6.70
2022-07-28T10:23:44.572Z,12.40
2022-07-28T10:24:45.112Z,7.40
2022-07-28T10:25:45.675Z,7.20
2022-07-28T10:26:46.211Z,8.90
2022-07-28T10:27:46.745Z,7.40
2022-07-28T10:28:47.286Z,9.50
2022-07-28T10:29:47.815Z,8.60
2022-07-28T10:30:48.408Z,6.80
2022-07-28T10:31:49.018Z,9.30
2022-07-28T10:32:49.545Z,7.50
2022-07-28T10:33:50.073Z,8.20
2022-07-28T10:34:50.616Z,8.80
2022-07-28T10:35:54.744Z,12.20
2022-07-28T10:36:51.763Z,9.10
2022-07-28T10:37:52.302Z,9.70
2022-07-28T10:38:52.835Z,10.40
2022-07-28T10:39:53.392Z,7.80
2022-07-28T10:40:54.003Z,9.80
2022-07-28T10:41:54.530Z,7.40
2022-07-28T10:42:55.067Z,8.00
2022-07-28T10:43:55.597Z,9.70
2022-07-28T10:44:56.513Z,9.50
2022-07-28T10:46:16.025Z,8.10
2022-07-28T10:46:58.090Z,7.50
2022-07-28T10:47:58.663Z,8.70
2022-07-28T10:48:59.303Z,10.70
2022-07-28T10:50:00.133Z,11.10
2022-07-28T10:51:01.061Z,12.40
2022-07-28T10:52:05.043Z,12.50
2022-07-28T10:53:02.500Z,13.40
2022-07-28T10:54:03.040Z,10.20
2022-07-28T10:55:03.581Z,12.30
2022-07-28T10:56:04.154Z,13.10
2022-07-28T10:57:05.213Z,12.20
2022-07-28T10:58:11.649Z,14.10
2022-07-28T10:59:06.888Z,10.70
2022-07-28T11:00:13.101Z,12.60
2022-07-28T11:01:10.655Z,14.20
2022-07-28T11:02:09.492Z,14.20
2022-07-28T11:03:13.305Z,10.40
2022-07-28T11:04:10.660Z,14.40
2022-07-28T11:05:11.335Z,12.90
2022-07-28T11:06:12.108Z,11.80
2022-07-28T11:07:12.643Z,12.80
2022-07-28T11:08:13.182Z,13.90
2022-07-28T11:09:13.726Z,13.00
2022-07-28T11:10:14.351Z,11.80
2022-07-28T11:11:15.004Z,9.70
2022-07-28T11:12:15.987Z,9.30
2022-07-28T11:13:16.230Z,9.70
2022-07-28T11:14:17.095Z,10.30
2022-07-28T11:15:18.745Z,10.40
2022-07-28T11:16:18.430Z,12.60
2022-07-28T11:17:19.871Z,9.90
2022-07-28T11:18:19.948Z,8.40
2022-07-28T11:19:36.892Z,12.00
2022-07-28T11:20:29.687Z,10.80
2022-07-28T11:21:22.368Z,11.80
2022-07-28T11:22:22.940Z,9.50
2022-07-28T11:23:23.452Z,10.70
2022-07-28T11:24:24.355Z,9.60
2022-07-28T11:25:24.906Z,12.10
2022-07-28T11:26:25.482Z,12.00
2022-07-28T11:27:26.020Z,9.20
2022-07-28T11:28:26.554Z,12.30
2022-07-28T11:29:27.098Z,10.30
2022-07-28T11:30:27.713Z,11.80
2022-07-28T11:31:28.346Z,10.90
2022-07-28T11:32:33.807Z,11.00
2022-07-28T11:33:29.885Z,15.20
2022-07-28T11:34:30.429Z,11.50
2022-07-28T11:35:30.970Z,10.00
2022-07-28T11:36:31.549Z,12.40
2022-07-28T11:37:32.099Z,10.60
2022-07-28T11:38:32.641Z,10.10
2022-07-28T11:39:43.031Z,11.80
2022-07-28T11:40:34.091Z,10.40
2022-07-28T11:41:34.760Z,12.00
2022-07-28T11:42:35.371Z,10.80
2022-07-28T11:43:39.064Z,9.00
2022-07-28T11:44:36.903Z,8.90
2022-07-28T11:45:38.717Z,10.00
2022-07-28T11:46:38.396Z,11.20
2022-07-28T11:47:38.699Z,9.90
2022-07-28T11:48:39.451Z,10.00
2022-07-28T11:49:40.122Z,11.60
2022-07-28T11:50:40.657Z,9.30
2022-07-28T11:51:52.507Z,9.80
2022-07-28T11:52:42.111Z,14.00
2022-07-28T11:53:42.663Z,9.60
2022-07-28T11:54:43.205Z,12.70
2022-07-28T11:55:55.663Z,10.70
2022-07-28T11:56:44.572Z,10.30
2022-07-28T11:57:45.056Z,7.70
2022-07-28T11:58:46.033Z,9.70
2022-07-28T11:59:47.300Z,7.80
2022-07-28T12:00:47.728Z,7.90
2022-07-28T12:01:48.741Z,9.70
2022-07-28T12:02:49.263Z,9.50
2022-07-28T12:03:55.332Z,10.30
2022-07-28T12:04:50.673Z,11.90
2022-07-28T12:05:51.237Z,9.10
2022-07-28T12:06:51.869Z,9.50
2022-07-28T12:07:52.377Z,9.10
2022-07-28T12:08:52.862Z,7.90
2022-07-28T12:09:53.851Z,10.40
2022-07-28T12:10:55.909Z,10.20
2022-07-28T12:11:55.902Z,9.80
2022-07-28T12:12:56.459Z,8.60
2022-07-28T12:13:56.943Z,10.90
2022-07-28T12:15:00.921Z,9.40
2022-07-28T12:15:58.779Z,9.90
2022-07-28T12:16:59.847Z,9.50
2022-07-28T12:18:00.385Z,10.60
2022-07-28T12:19:01.696Z,8.90
2022-07-28T12:20:01.413Z,9.40
2022-07-28T12:21:05.214Z,11.10
2022-07-28T12:22:02.963Z,9.10
2022-07-28T12:23:03.755Z,8.20
2022-07-28T12:24:04.250Z,8.70
2022-07-28T12:25:05.026Z,8.30
2022-07-28T12:26:05.882Z,7.90
2022-07-28T12:27:06.444Z,7.20
2022-07-28T12:28:07.083Z,9.10
2022-07-28T12:29:08.382Z,8.50
2022-07-28T12:30:08.890Z,8.80
2022-07-28T12:31:09.929Z,8.80
2022-07-28T12:32:10.832Z,10.10
2022-07-28T12:33:11.053Z,8.40
2022-07-28T12:34:11.915Z,8.40
2022-07-28T12:35:12.302Z,8.10
2022-07-28T12:36:12.844Z,8.20
2022-07-28T12:37:13.443Z,8.50
2022-07-28T12:38:14.003Z,8.40
2022-07-28T12:39:14.543Z,8.50
2022-07-28T12:40:15.078Z,8.40
2022-07-28T12:41:15.655Z,7.90
2022-07-28T12:42:16.275Z,8.00
2022-07-28T12:43:16.811Z,8.80
2022-07-28T12:44:17.852Z,8.50
2022-07-28T12:45:17.979Z,8.50
2022-07-28T12:46:18.593Z,8.30
2022-07-28T12:47:19.198Z,7.30
2022-07-28T12:48:19.737Z,8.20
2022-07-28T12:49:20.356Z,7.60
2022-07-28T12:50:20.940Z,7.50
2022-07-28T12:51:21.475Z,8.60
2022-07-28T12:52:22.708Z,8.00
2022-07-28T12:53:22.984Z,9.80
2022-07-28T12:54:23.538Z,10.00
2022-07-28T12:55:24.081Z,7.90
2022-07-28T12:56:24.617Z,8.10
2022-07-28T12:57:25.185Z,7.60
2022-07-28T12:58:25.712Z,7.60
2022-07-28T12:59:26.253Z,7.70
2022-07-28T13:00:26.793Z,7.80
2022-07-28T13:01:27.385Z,9.60
2022-07-28T13:02:28.077Z,7.20
2022-07-28T13:03:28.619Z,8.20
2022-07-28T13:04:29.154Z,7.00
2022-07-28T13:05:29.700Z,8.90
2022-07-28T13:06:30.239Z,7.60
2022-07-28T13:07:30.880Z,7.90
2022-07-28T13:08:31.585Z,8.20
2022-07-28T13:09:32.689Z,8.20
2022-07-28T13:10:33.413Z,7.60
2022-07-28T13:11:46.046Z,7.10
2022-07-28T13:12:34.962Z,9.50
2022-07-28T13:13:35.498Z,8.00
2022-07-28T13:14:36.027Z,8.10
2022-07-28T13:15:36.555Z,8.30
2022-07-28T13:16:37.142Z,8.10
2022-07-28T13:17:37.717Z,7.00
2022-07-28T13:18:38.259Z,7.90
2022-07-28T13:19:38.799Z,8.20
2022-07-28T13:20:39.345Z,7.10
2022-07-28T13:21:39.883Z,7.40
2022-07-28T13:22:40.872Z,8.50
2022-07-28T13:23:41.409Z,7.00
2022-07-28T13:24:41.951Z,8.70
2022-07-28T13:25:42.488Z,8.20